sensor_id;sensor_type;location;lat;lon;timestamp;temperature;humidity
11619;DHT22;5865;48.776;9.280;2023-04-01T00:01:06;8.00;99.90
11619;DHT22;5865;48.776;9.280;2023-04-01T00:03:33;8.00;99.90
11619;DHT22;5865;48.776;9.280;2023-04-01T00:06:01;8.10;99.90
11619;DHT22;5865;48.776;9.280;2023-04-01T00:10:56;8.00;99.90
11619;DHT22;5865;48.776;9.280;2023-04-01T00:13:25;8.20;99.90
11619;DHT22;5865;48.776;9.280;2023-04-01T00:15:53;8.30;99.90
11619;DHT22;5865;48.776;9.280;2023-04-01T00:18:20;8.30;99.90
11619;DHT22;5865;48.776;9.280;2023-04-01T00:20:49;8.30;99.90
11619;DHT22;5865;48.776;9.280;2023-04-01T00:23:18;8.40;99.90
11619;DHT22;5865;48.776;9.280;2023-04-01T00:25:46;8.40;99.90
11619;DHT22;5865;48.776;9.280;2023-04-01T00:28:15;8.40;99.90
11619;DHT22;5865;48.776;9.280;2023-04-01T00:30:43;8.40;99.90
11619;DHT22;5865;48.776;9.280;2023-04-01T00:33:10;8.40;99.90
11619;DHT22;5865;48.776;9.280;2023-04-01T00:35:37;8.30;99.90
11619;DHT22;5865;48.776;9.280;2023-04-01T00:40:34;8.20;99.90
11619;DHT22;5865;48.776;9.280;2023-04-01T00:43:03;8.20;99.90
11619;DHT22;5865;48.776;9.280;2023-04-01T00:45:33;8.10;99.90
11619;DHT22;5865;48.776;9.280;2023-04-01T00:48:05;8.20;99.90
11619;DHT22;5865;48.776;9.280;2023-04-01T00:50:34;8.20;99.90
11619;DHT22;5865;48.776;9.280;2023-04-01T00:53:03;8.10;99.90
11619;DHT22;5865;48.776;9.280;2023-04-01T00:55:34;8.40;99.90
11619;DHT22;5865;48.776;9.280;2023-04-01T00:58:05;8.40;99.90
11619;DHT22;5865;48.776;9.280;2023-04-01T01:03:03;8.30;99.90
11619;DHT22;5865;48.776;9.280;2023-04-01T01:05:36;8.30;99.90
11619;DHT22;5865;48.776;9.280;2023-04-01T01:08:11;8.40;99.90
11619;DHT22;5865;48.776;9.280;2023-04-01T01:10:43;8.40;99.90
11619;DHT22;5865;48.776;9.280;2023-04-01T01:13:16;8.40;99.90
11619;DHT22;5865;48.776;9.280;2023-04-01T01:15:46;8.40;99.90
11619;DHT22;5865;48.776;9.280;2023-04-01T01:18:19;8.20;99.90
11619;DHT22;5865;48.776;9.280;2023-04-01T01:21:05;8.20;99.90
11619;DHT22;5865;48.776;9.280;2023-04-01T01:24:02;8.20;99.90
11619;DHT22;5865;48.776;9.280;2023-04-01T01:26:48;8.10;99.90
11619;DHT22;5865;48.776;9.280;2023-04-01T01:29:52;8.20;99.90
11619;DHT22;5865;48.776;9.280;2023-04-01T01:32:47;8.30;99.90
11619;DHT22;5865;48.776;9.280;2023-04-01T01:35:24;8.30;99.90
11619;DHT22;5865;48.776;9.280;2023-04-01T01:37:56;8.20;99.90
11619;DHT22;5865;48.776;9.280;2023-04-01T01:40:26;8.30;99.90
11619;DHT22;5865;48.776;9.280;2023-04-01T01:42:56;8.30;99.90
11619;DHT22;5865;48.776;9.280;2023-04-01T01:45:26;8.30;99.90
11619;DHT22;5865;48.776;9.280;2023-04-01T01:47:53;8.30;99.90
11619;DHT22;5865;48.776;9.280;2023-04-01T01:50:26;8.30;99.90
11619;DHT22;5865;48.776;9.280;2023-04-01T01:53:01;8.30;99.90
11619;DHT22;5865;48.776;9.280;2023-04-01T01:55:30;8.30;99.90
11619;DHT22;5865;48.776;9.280;2023-04-01T01:57:59;8.20;99.90
11619;DHT22;5865;48.776;9.280;2023-04-01T02:03:00;8.10;99.90
11619;DHT22;5865;48.776;9.280;2023-04-01T02:05:33;8.00;99.90
11619;DHT22;5865;48.776;9.280;2023-04-01T02:08:09;8.00;99.90
11619;DHT22;5865;48.776;9.280;2023-04-01T02:10:41;8.00;99.90
11619;DHT22;5865;48.776;9.280;2023-04-01T02:13:13;7.90;99.90
11619;DHT22;5865;48.776;9.280;2023-04-01T02:15:44;7.90;99.90
11619;DHT22;5865;48.776;9.280;2023-04-01T02:18:14;7.80;99.90
11619;DHT22;5865;48.776;9.280;2023-04-01T02:20:44;7.80;99.90
11619;DHT22;5865;48.776;9.280;2023-04-01T02:25:41;7.80;99.90
11619;DHT22;5865;48.776;9.280;2023-04-01T02:28:10;7.90;99.90
11619;DHT22;5865;48.776;9.280;2023-04-01T02:30:41;7.90;99.90
11619;DHT22;5865;48.776;9.280;2023-04-01T02:33:10;7.90;99.90
11619;DHT22;5865;48.776;9.280;2023-04-01T02:40:47;7.90;99.90
11619;DHT22;5865;48.776;9.280;2023-04-01T02:45:44;8.00;99.90
11619;DHT22;5865;48.776;9.280;2023-04-01T05:06:16;7.00;99.90
11619;DHT22;5865;48.776;9.280;2023-04-01T05:57:20;8.00;99.90
11619;DHT22;5865;48.776;9.280;2023-04-01T06:03:45;8.20;99.90
11619;DHT22;5865;48.776;9.280;2023-04-01T06:10:16;8.50;99.90
11619;DHT22;5865;48.776;9.280;2023-04-01T06:15:36;8.60;99.90
11619;DHT22;5865;48.776;9.280;2023-04-01T06:20:53;8.80;99.90
11619;DHT22;5865;48.776;9.280;2023-04-01T06:23:33;8.80;99.90
11619;DHT22;5865;48.776;9.280;2023-04-01T06:26:14;9.00;99.90
11619;DHT22;5865;48.776;9.280;2023-04-01T06:32:17;9.40;99.90
11619;DHT22;5865;48.776;9.280;2023-04-01T06:40:44;9.40;99.90
11619;DHT22;5865;48.776;9.280;2023-04-01T06:43:17;9.40;99.90
11619;DHT22;5865;48.776;9.280;2023-04-01T06:46:12;9.40;99.90
11619;DHT22;5865;48.776;9.280;2023-04-01T06:49:21;9.40;99.90
11619;DHT22;5865;48.776;9.280;2023-04-01T06:52:18;9.50;99.90
11619;DHT22;5865;48.776;9.280;2023-04-01T06:55:20;9.50;99.90
11619;DHT22;5865;48.776;9.280;2023-04-01T06:58:15;9.60;99.90
11619;DHT22;5865;48.776;9.280;2023-04-01T09:21:12;9.20;99.90
11619;DHT22;5865;48.776;9.280;2023-04-01T09:24:35;9.20;99.90
11619;DHT22;5865;48.776;9.280;2023-04-01T09:27:14;9.40;99.90
11619;DHT22;5865;48.776;9.280;2023-04-01T09:38:21;9.60;99.90
11619;DHT22;5865;48.776;9.280;2023-04-01T09:40:55;9.90;99.90
11619;DHT22;5865;48.776;9.280;2023-04-01T09:43:49;10.30;99.90
11619;DHT22;5865;48.776;9.280;2023-04-01T09:46:29;10.30;99.90
11619;DHT22;5865;48.776;9.280;2023-04-01T09:49:18;10.40;99.90
11619;DHT22;5865;48.776;9.280;2023-04-01T09:52:01;10.30;99.90
11619;DHT22;5865;48.776;9.280;2023-04-01T09:54:48;10.10;99.90
11619;DHT22;5865;48.776;9.280;2023-04-01T09:57:55;9.90;99.90
11619;DHT22;5865;48.776;9.280;2023-04-01T10:01:31;10.00;99.90
11619;DHT22;5865;48.776;9.280;2023-04-01T10:04:30;9.90;99.90
11619;DHT22;5865;48.776;9.280;2023-04-01T10:07:26;9.90;99.90
11619;DHT22;5865;48.776;9.280;2023-04-01T10:10:32;10.30;99.90
11619;DHT22;5865;48.776;9.280;2023-04-01T10:13:29;10.20;99.90
11619;DHT22;5865;48.776;9.280;2023-04-01T10:22:39;10.10;99.90
11619;DHT22;5865;48.776;9.280;2023-04-01T10:25:23;10.30;99.90
11619;DHT22;5865;48.776;9.280;2023-04-01T10:28:23;10.50;99.90
11619;DHT22;5865;48.776;9.280;2023-04-01T10:37:44;10.80;99.90
11619;DHT22;5865;48.776;9.280;2023-04-01T10:40:35;10.90;99.90
11619;DHT22;5865;48.776;9.280;2023-04-01T10:46:43;10.40;99.90
11619;DHT22;5865;48.776;9.280;2023-04-01T10:49:51;10.50;99.90
11619;DHT22;5865;48.776;9.280;2023-04-01T10:56:32;10.60;99.90
11619;DHT22;5865;48.776;9.280;2023-04-01T11:00:16;10.80;99.90
11619;DHT22;5865;48.776;9.280;2023-04-01T11:07:03;10.90;99.90
11619;DHT22;5865;48.776;9.280;2023-04-01T11:13:22;10.90;99.90
11619;DHT22;5865;48.776;9.280;2023-04-01T11:16:32;10.40;99.90
11619;DHT22;5865;48.776;9.280;2023-04-01T11:22:24;10.60;99.90
11619;DHT22;5865;48.776;9.280;2023-04-01T11:31:29;11.70;99.90
11619;DHT22;5865;48.776;9.280;2023-04-01T11:34:11;11.60;99.90
11619;DHT22;5865;48.776;9.280;2023-04-01T11:36:50;11.70;99.90
11619;DHT22;5865;48.776;9.280;2023-04-01T11:39:31;11.70;99.90
11619;DHT22;5865;48.776;9.280;2023-04-01T11:42:14;11.80;99.90
11619;DHT22;5865;48.776;9.280;2023-04-01T11:45:24;11.40;99.90
11619;DHT22;5865;48.776;9.280;2023-04-01T11:48:12;11.70;99.90
11619;DHT22;5865;48.776;9.280;2023-04-01T11:50:55;11.80;99.90
11619;DHT22;5865;48.776;9.280;2023-04-01T11:53:44;11.80;99.90
11619;DHT22;5865;48.776;9.280;2023-04-01T11:56:28;11.80;99.90
11619;DHT22;5865;48.776;9.280;2023-04-01T11:59:26;11.70;99.90
11619;DHT22;5865;48.776;9.280;2023-04-01T12:02:01;11.70;99.90
11619;DHT22;5865;48.776;9.280;2023-04-01T12:05:03;11.80;99.90
11619;DHT22;5865;48.776;9.280;2023-04-01T12:07:50;11.70;99.90
11619;DHT22;5865;48.776;9.280;2023-04-01T12:10:21;11.50;99.90
11619;DHT22;5865;48.776;9.280;2023-04-01T12:12:54;11.40;99.90
11619;DHT22;5865;48.776;9.280;2023-04-01T12:15:31;11.20;99.90
11619;DHT22;5865;48.776;9.280;2023-04-01T12:18:10;11.30;99.90
11619;DHT22;5865;48.776;9.280;2023-04-01T12:20:48;11.30;99.90
11619;DHT22;5865;48.776;9.280;2023-04-01T12:23:42;11.20;99.90
11619;DHT22;5865;48.776;9.280;2023-04-01T12:26:47;11.30;99.90
11619;DHT22;5865;48.776;9.280;2023-04-01T12:29:41;11.70;99.90
11619;DHT22;5865;48.776;9.280;2023-04-01T12:32:20;11.50;99.90
11619;DHT22;5865;48.776;9.280;2023-04-01T12:35:13;11.40;99.90
11619;DHT22;5865;48.776;9.280;2023-04-01T12:37:50;11.10;99.90
11619;DHT22;5865;48.776;9.280;2023-04-01T12:40:29;11.10;99.90
11619;DHT22;5865;48.776;9.280;2023-04-01T12:46:03;11.20;99.90
11619;DHT22;5865;48.776;9.280;2023-04-01T12:49:03;11.40;99.90
11619;DHT22;5865;48.776;9.280;2023-04-01T12:51:50;11.70;99.90
11619;DHT22;5865;48.776;9.280;2023-04-01T12:54:46;11.90;99.90
11619;DHT22;5865;48.776;9.280;2023-04-01T13:00:18;11.70;99.90
11619;DHT22;5865;48.776;9.280;2023-04-01T13:02:59;12.00;99.90
11619;DHT22;5865;48.776;9.280;2023-04-01T13:08:32;12.00;99.90
11619;DHT22;5865;48.776;9.280;2023-04-01T13:16:57;12.10;99.90
11619;DHT22;5865;48.776;9.280;2023-04-01T13:19:31;12.00;99.90
11619;DHT22;5865;48.776;9.280;2023-04-01T13:24:43;11.70;99.90
11619;DHT22;5865;48.776;9.280;2023-04-01T13:27:18;11.50;99.90
11619;DHT22;5865;48.776;9.280;2023-04-01T13:30:03;11.50;99.90
11619;DHT22;5865;48.776;9.280;2023-04-01T13:32:44;11.70;99.90
11619;DHT22;5865;48.776;9.280;2023-04-01T13:35:20;11.80;99.90
11619;DHT22;5865;48.776;9.280;2023-04-01T13:40:48;11.90;99.90
11619;DHT22;5865;48.776;9.280;2023-04-01T13:43:24;12.10;99.90
11619;DHT22;5865;48.776;9.280;2023-04-01T13:46:15;12.40;99.90
11619;DHT22;5865;48.776;9.280;2023-04-01T13:49:07;12.50;99.90
11619;DHT22;5865;48.776;9.280;2023-04-01T13:52:04;12.40;99.90
11619;DHT22;5865;48.776;9.280;2023-04-01T14:00:50;11.90;99.90
11619;DHT22;5865;48.776;9.280;2023-04-01T14:03:45;11.90;99.90
11619;DHT22;5865;48.776;9.280;2023-04-01T14:06:23;11.80;99.90
11619;DHT22;5865;48.776;9.280;2023-04-01T14:09:15;12.00;99.90
11619;DHT22;5865;48.776;9.280;2023-04-01T14:11:52;11.90;99.90
11619;DHT22;5865;48.776;9.280;2023-04-01T14:14:27;12.10;99.90
11619;DHT22;5865;48.776;9.280;2023-04-01T14:17:08;12.10;99.90
11619;DHT22;5865;48.776;9.280;2023-04-01T14:19:56;12.00;99.90
11619;DHT22;5865;48.776;9.280;2023-04-01T14:22:31;11.70;99.90
11619;DHT22;5865;48.776;9.280;2023-04-01T14:25:17;11.60;99.90
11619;DHT22;5865;48.776;9.280;2023-04-01T14:27:56;11.70;99.90
11619;DHT22;5865;48.776;9.280;2023-04-01T14:30:39;11.60;99.90
11619;DHT22;5865;48.776;9.280;2023-04-01T14:33:23;11.40;99.90
11619;DHT22;5865;48.776;9.280;2023-04-01T14:36:08;11.30;99.90
11619;DHT22;5865;48.776;9.280;2023-04-01T14:38:50;11.40;99.90
11619;DHT22;5865;48.776;9.280;2023-04-01T14:41:32;11.30;99.90
11619;DHT22;5865;48.776;9.280;2023-04-01T14:44:18;11.20;99.90
11619;DHT22;5865;48.776;9.280;2023-04-01T14:47:15;11.20;99.90
11619;DHT22;5865;48.776;9.280;2023-04-01T14:49:51;11.00;99.90
11619;DHT22;5865;48.776;9.280;2023-04-01T14:52:24;11.00;99.90
11619;DHT22;5865;48.776;9.280;2023-04-01T14:54:55;10.90;99.90
11619;DHT22;5865;48.776;9.280;2023-04-01T14:57:26;10.90;99.90
11619;DHT22;5865;48.776;9.280;2023-04-01T15:00:00;10.90;99.90
11619;DHT22;5865;48.776;9.280;2023-04-01T15:02:51;10.90;99.90
11619;DHT22;5865;48.776;9.280;2023-04-01T15:05:32;11.00;99.90
11619;DHT22;5865;48.776;9.280;2023-04-01T15:08:21;11.00;99.90
11619;DHT22;5865;48.776;9.280;2023-04-01T15:10:57;11.00;99.90
11619;DHT22;5865;48.776;9.280;2023-04-01T15:13:45;11.20;99.90
11619;DHT22;5865;48.776;9.280;2023-04-01T15:18:55;11.40;99.90
11619;DHT22;5865;48.776;9.280;2023-04-01T15:21:38;11.30;99.90
11619;DHT22;5865;48.776;9.280;2023-04-01T15:24:21;11.10;99.90
11619;DHT22;5865;48.776;9.280;2023-04-01T15:27:14;11.10;99.90
11619;DHT22;5865;48.776;9.280;2023-04-01T15:30:06;11.10;99.90
11619;DHT22;5865;48.776;9.280;2023-04-01T15:32:50;11.10;99.90
11619;DHT22;5865;48.776;9.280;2023-04-01T15:37:58;11.20;99.90
11619;DHT22;5865;48.776;9.280;2023-04-01T15:40:32;11.30;99.90
11619;DHT22;5865;48.776;9.280;2023-04-01T15:43:14;11.30;99.90
11619;DHT22;5865;48.776;9.280;2023-04-01T15:48:34;11.20;99.90
11619;DHT22;5865;48.776;9.280;2023-04-01T15:59:42;11.10;99.90
11619;DHT22;5865;48.776;9.280;2023-04-01T16:02:18;11.10;99.90
11619;DHT22;5865;48.776;9.280;2023-04-01T16:04:58;11.10;99.90
11619;DHT22;5865;48.776;9.280;2023-04-01T16:12:57;10.90;99.90
11619;DHT22;5865;48.776;9.280;2023-04-01T16:15:38;10.90;99.90
11619;DHT22;5865;48.776;9.280;2023-04-01T16:20:51;10.80;99.90
11619;DHT22;5865;48.776;9.280;2023-04-01T16:23:24;10.80;99.90
11619;DHT22;5865;48.776;9.280;2023-04-01T16:26:01;10.80;99.90
11619;DHT22;5865;48.776;9.280;2023-04-01T16:28:38;10.70;99.90
11619;DHT22;5865;48.776;9.280;2023-04-01T16:33:46;10.70;99.90
11619;DHT22;5865;48.776;9.280;2023-04-01T16:36:24;10.70;99.90
11619;DHT22;5865;48.776;9.280;2023-04-01T16:39:02;10.70;99.90
11619;DHT22;5865;48.776;9.280;2023-04-01T16:44:16;11.50;99.90
11619;DHT22;5865;48.776;9.280;2023-04-01T16:46:47;10.60;99.90
11619;DHT22;5865;48.776;9.280;2023-04-01T16:49:31;10.60;99.90
11619;DHT22;5865;48.776;9.280;2023-04-01T16:54:44;10.60;99.90
11619;DHT22;5865;48.776;9.280;2023-04-01T16:57:19;10.60;99.90
11619;DHT22;5865;48.776;9.280;2023-04-01T16:59:58;10.60;99.90
11619;DHT22;5865;48.776;9.280;2023-04-01T17:02:35;10.70;99.90
11619;DHT22;5865;48.776;9.280;2023-04-01T17:05:07;10.70;99.90
11619;DHT22;5865;48.776;9.280;2023-04-01T17:07:48;10.70;99.90
11619;DHT22;5865;48.776;9.280;2023-04-01T17:10:31;10.70;99.90
11619;DHT22;5865;48.776;9.280;2023-04-01T17:16:10;10.70;99.90
11619;DHT22;5865;48.776;9.280;2023-04-01T17:21:16;10.60;99.90
11619;DHT22;5865;48.776;9.280;2023-04-01T17:23:48;10.60;99.90
11619;DHT22;5865;48.776;9.280;2023-04-01T17:26:26;10.60;99.90
11619;DHT22;5865;48.776;9.280;2023-04-01T17:31:42;10.50;99.90
11619;DHT22;5865;48.776;9.280;2023-04-01T17:37:04;10.50;99.90
11619;DHT22;5865;48.776;9.280;2023-04-01T17:39:53;10.50;99.90
11619;DHT22;5865;48.776;9.280;2023-04-01T17:42:30;10.50;99.90
11619;DHT22;5865;48.776;9.280;2023-04-01T17:45:02;10.50;99.90
11619;DHT22;5865;48.776;9.280;2023-04-01T17:47:44;10.50;99.90
11619;DHT22;5865;48.776;9.280;2023-04-01T17:50:24;10.40;99.90
11619;DHT22;5865;48.776;9.280;2023-04-01T17:53:14;10.40;99.90
11619;DHT22;5865;48.776;9.280;2023-04-01T17:55:50;10.40;99.90
11619;DHT22;5865;48.776;9.280;2023-04-01T17:58:26;10.40;99.90
11619;DHT22;5865;48.776;9.280;2023-04-01T18:01:12;10.40;99.90
11619;DHT22;5865;48.776;9.280;2023-04-01T18:09:34;10.30;99.90
11619;DHT22;5865;48.776;9.280;2023-04-01T18:12:12;10.30;99.90
11619;DHT22;5865;48.776;9.280;2023-04-01T18:15:09;10.30;99.90
11619;DHT22;5865;48.776;9.280;2023-04-01T18:17:45;10.30;99.90
11619;DHT22;5865;48.776;9.280;2023-04-01T18:20:33;10.10;99.90
11619;DHT22;5865;48.776;9.280;2023-04-01T18:25:41;10.10;99.90
11619;DHT22;5865;48.776;9.280;2023-04-01T18:28:26;10.00;99.90
11619;DHT22;5865;48.776;9.280;2023-04-01T18:31:05;9.70;99.90
11619;DHT22;5865;48.776;9.280;2023-04-01T18:33:46;9.70;99.90
11619;DHT22;5865;48.776;9.280;2023-04-01T18:36:19;9.70;99.90
11619;DHT22;5865;48.776;9.280;2023-04-01T18:38:53;9.70;99.90
11619;DHT22;5865;48.776;9.280;2023-04-01T18:41:29;9.70;99.90
11619;DHT22;5865;48.776;9.280;2023-04-01T18:44:10;9.70;99.90
11619;DHT22;5865;48.776;9.280;2023-04-01T18:46:49;9.70;99.90
11619;DHT22;5865;48.776;9.280;2023-04-01T18:49:23;9.60;99.90
11619;DHT22;5865;48.776;9.280;2023-04-01T18:51:56;9.60;99.90
11619;DHT22;5865;48.776;9.280;2023-04-01T18:54:30;9.50;99.90
11619;DHT22;5865;48.776;9.280;2023-04-01T18:59:34;9.40;99.90
11619;DHT22;5865;48.776;9.280;2023-04-01T19:02:08;9.20;99.90
11619;DHT22;5865;48.776;9.280;2023-04-01T19:04:40;9.10;99.90
11619;DHT22;5865;48.776;9.280;2023-04-01T19:07:41;8.90;99.90
11619;DHT22;5865;48.776;9.280;2023-04-01T19:10:17;8.70;99.90
11619;DHT22;5865;48.776;9.280;2023-04-01T19:12:55;8.70;99.90
11619;DHT22;5865;48.776;9.280;2023-04-01T19:15:34;8.80;99.90
11619;DHT22;5865;48.776;9.280;2023-04-01T19:20:51;8.40;99.90
11619;DHT22;5865;48.776;9.280;2023-04-01T19:24:04;8.40;99.90
11619;DHT22;5865;48.776;9.280;2023-04-01T19:29:10;8.40;99.90
11619;DHT22;5865;48.776;9.280;2023-04-01T19:31:50;8.10;99.90
11619;DHT22;5865;48.776;9.280;2023-04-01T19:34:27;8.10;99.90
11619;DHT22;5865;48.776;9.280;2023-04-01T19:37:01;7.90;99.90
11619;DHT22;5865;48.776;9.280;2023-04-01T19:39:41;7.80;99.90
11619;DHT22;5865;48.776;9.280;2023-04-01T19:42:19;7.60;99.90
11619;DHT22;5865;48.776;9.280;2023-04-01T19:44:57;7.90;99.90
11619;DHT22;5865;48.776;9.280;2023-04-01T19:50:19;8.40;99.90
11619;DHT22;5865;48.776;9.280;2023-04-01T19:55:25;8.30;99.90
11619;DHT22;5865;48.776;9.280;2023-04-01T19:58:00;8.30;99.90
11619;DHT22;5865;48.776;9.280;2023-04-01T20:00:36;8.40;99.90
11619;DHT22;5865;48.776;9.280;2023-04-01T20:03:14;8.40;99.90
11619;DHT22;5865;48.776;9.280;2023-04-01T20:06:00;8.50;99.90
11619;DHT22;5865;48.776;9.280;2023-04-01T20:08:33;8.60;99.90
11619;DHT22;5865;48.776;9.280;2023-04-01T20:11:18;8.60;99.90
11619;DHT22;5865;48.776;9.280;2023-04-01T20:13:57;8.60;99.90
11619;DHT22;5865;48.776;9.280;2023-04-01T20:16:48;8.60;99.90
11619;DHT22;5865;48.776;9.280;2023-04-01T20:19:27;8.60;99.90
11619;DHT22;5865;48.776;9.280;2023-04-01T20:21:57;8.70;99.90
11619;DHT22;5865;48.776;9.280;2023-04-01T20:24:30;8.80;99.90
11619;DHT22;5865;48.776;9.280;2023-04-01T20:27:02;8.80;99.90
11619;DHT22;5865;48.776;9.280;2023-04-01T20:29:39;8.80;99.90
11619;DHT22;5865;48.776;9.280;2023-04-01T20:32:23;8.70;99.90
11619;DHT22;5865;48.776;9.280;2023-04-01T20:35:13;8.70;99.90
11619;DHT22;5865;48.776;9.280;2023-04-01T20:37:46;8.70;99.90
11619;DHT22;5865;48.776;9.280;2023-04-01T20:40:26;8.70;99.90
11619;DHT22;5865;48.776;9.280;2023-04-01T20:43:20;8.70;99.90
11619;DHT22;5865;48.776;9.280;2023-04-01T20:45:56;8.70;99.90
11619;DHT22;5865;48.776;9.280;2023-04-01T20:48:45;8.70;99.90
11619;DHT22;5865;48.776;9.280;2023-04-01T20:51:17;8.70;99.90
11619;DHT22;5865;48.776;9.280;2023-04-01T20:53:51;8.70;99.90
11619;DHT22;5865;48.776;9.280;2023-04-01T20:59:09;8.70;99.90
11619;DHT22;5865;48.776;9.280;2023-04-01T21:01:46;8.70;99.90
11619;DHT22;5865;48.776;9.280;2023-04-01T21:04:23;8.70;99.90
11619;DHT22;5865;48.776;9.280;2023-04-01T21:09:37;8.70;99.90
11619;DHT22;5865;48.776;9.280;2023-04-01T21:12:28;8.60;99.90
11619;DHT22;5865;48.776;9.280;2023-04-01T21:15:07;8.60;99.90
11619;DHT22;5865;48.776;9.280;2023-04-01T21:17:52;8.50;99.90
11619;DHT22;5865;48.776;9.280;2023-04-01T21:20:43;8.40;99.90
11619;DHT22;5865;48.776;9.280;2023-04-01T21:23:37;8.40;99.90
11619;DHT22;5865;48.776;9.280;2023-04-01T21:26:18;8.30;99.90
11619;DHT22;5865;48.776;9.280;2023-04-01T21:29:24;8.30;99.90
11619;DHT22;5865;48.776;9.280;2023-04-01T21:32:08;8.40;99.90
11619;DHT22;5865;48.776;9.280;2023-04-01T21:34:43;8.30;99.90
11619;DHT22;5865;48.776;9.280;2023-04-01T21:37:26;8.20;99.90
11619;DHT22;5865;48.776;9.280;2023-04-01T21:40:15;8.20;99.90
11619;DHT22;5865;48.776;9.280;2023-04-01T21:42:50;8.20;99.90
11619;DHT22;5865;48.776;9.280;2023-04-01T21:45:37;8.20;99.90
11619;DHT22;5865;48.776;9.280;2023-04-01T21:48:32;8.10;99.90
11619;DHT22;5865;48.776;9.280;2023-04-01T21:51:30;8.10;99.90
11619;DHT22;5865;48.776;9.280;2023-04-01T21:54:15;8.10;99.90
11619;DHT22;5865;48.776;9.280;2023-04-01T21:57:13;8.20;99.90
11619;DHT22;5865;48.776;9.280;2023-04-01T22:00:08;8.20;99.90
11619;DHT22;5865;48.776;9.280;2023-04-01T22:03:12;8.30;99.90
11619;DHT22;5865;48.776;9.280;2023-04-01T22:05:47;8.30;99.90
11619;DHT22;5865;48.776;9.280;2023-04-01T22:08:36;8.20;99.90
11619;DHT22;5865;48.776;9.280;2023-04-01T22:11:14;8.30;99.90
11619;DHT22;5865;48.776;9.280;2023-04-01T22:13:50;8.30;99.90
11619;DHT22;5865;48.776;9.280;2023-04-01T22:16:23;8.30;99.90
11619;DHT22;5865;48.776;9.280;2023-04-01T22:19:01;8.30;99.90
11619;DHT22;5865;48.776;9.280;2023-04-01T22:21:40;8.30;99.90
11619;DHT22;5865;48.776;9.280;2023-04-01T22:24:16;8.30;99.90
11619;DHT22;5865;48.776;9.280;2023-04-01T22:26:50;8.30;99.90
11619;DHT22;5865;48.776;9.280;2023-04-01T22:29:23;8.40;99.90
11619;DHT22;5865;48.776;9.280;2023-04-01T22:31:54;8.50;99.90
11619;DHT22;5865;48.776;9.280;2023-04-01T22:34:30;8.50;99.90
11619;DHT22;5865;48.776;9.280;2023-04-01T22:37:08;8.50;99.90
11619;DHT22;5865;48.776;9.280;2023-04-01T22:39:51;8.60;99.90
11619;DHT22;5865;48.776;9.280;2023-04-01T22:42:30;8.50;99.90
11619;DHT22;5865;48.776;9.280;2023-04-01T22:45:06;8.40;99.90
11619;DHT22;5865;48.776;9.280;2023-04-01T22:47:42;8.40;99.90
11619;DHT22;5865;48.776;9.280;2023-04-01T22:50:15;8.40;99.90
11619;DHT22;5865;48.776;9.280;2023-04-01T22:52:46;8.60;99.90
11619;DHT22;5865;48.776;9.280;2023-04-01T22:55:20;8.60;99.90
11619;DHT22;5865;48.776;9.280;2023-04-01T22:57:51;10.00;99.90
11619;DHT22;5865;48.776;9.280;2023-04-01T23:00:23;8.60;99.90
11619;DHT22;5865;48.776;9.280;2023-04-01T23:03:04;8.60;99.90
11619;DHT22;5865;48.776;9.280;2023-04-01T23:05:39;8.50;99.90
11619;DHT22;5865;48.776;9.280;2023-04-01T23:08:34;8.50;99.90
11619;DHT22;5865;48.776;9.280;2023-04-01T23:11:07;8.70;99.90
11619;DHT22;5865;48.776;9.280;2023-04-01T23:13:39;8.60;99.90
11619;DHT22;5865;48.776;9.280;2023-04-01T23:16:07;8.50;99.90
11619;DHT22;5865;48.776;9.280;2023-04-01T23:18:41;8.50;99.90
11619;DHT22;5865;48.776;9.280;2023-04-01T23:21:15;8.50;99.90
11619;DHT22;5865;48.776;9.280;2023-04-01T23:23:55;8.50;99.90
11619;DHT22;5865;48.776;9.280;2023-04-01T23:26:33;8.50;99.90
11619;DHT22;5865;48.776;9.280;2023-04-01T23:29:03;8.60;99.90
11619;DHT22;5865;48.776;9.280;2023-04-01T23:31:36;8.50;99.90
11619;DHT22;5865;48.776;9.280;2023-04-01T23:34:28;8.60;99.90
11619;DHT22;5865;48.776;9.280;2023-04-01T23:36:57;8.60;99.90
11619;DHT22;5865;48.776;9.280;2023-04-01T23:39:28;8.60;99.90
11619;DHT22;5865;48.776;9.280;2023-04-01T23:42:00;8.50;99.90
11619;DHT22;5865;48.776;9.280;2023-04-01T23:44:28;8.50;99.90
11619;DHT22;5865;48.776;9.280;2023-04-01T23:46:57;8.50;99.90
11619;DHT22;5865;48.776;9.280;2023-04-01T23:49:30;8.40;99.90
11619;DHT22;5865;48.776;9.280;2023-04-01T23:51:59;8.40;99.90
11619;DHT22;5865;48.776;9.280;2023-04-01T23:54:33;8.40;99.90
11619;DHT22;5865;48.776;9.280;2023-04-01T23:57:11;8.40;99.90
11619;DHT22;5865;48.776;9.280;2023-04-01T23:59:38;8.40;99.90
